Time;durP1;ratioP1;P1;durP2;ratioP2;P2;SDS_P1;SDS_P2;PMS_P1;PMS_P2;Temp;Humidity;BMP_temperature;BMP_pressure;BME280_temperature;BME280_humidity;BME280_pressure;Samples;Min_cycle;Max_cycle;Signal;HPM_P1;HPM_P2
2022/11/16 00:00:09;;;;;;;1.83;1.50;;;11.60;91.40;;;;;;6217285;23;20419;-70
2022/11/16 00:02:37;;;;;;;2.17;1.97;;;11.60;91.50;;;;;;6217246;23;20387;-70
2022/11/16 00:05:08;;;;;;;2.47;1.90;;;11.60;91.60;;;;;;6217391;23;20403;-70
2022/11/16 00:07:36;;;;;;;1.83;1.63;;;11.60;91.70;;;;;;6216009;23;20466;-70
2022/11/16 00:10:06;;;;;;;2.37;1.70;;;11.60;91.70;;;;;;6216185;23;20689;-70
2022/11/16 00:12:34;;;;;;;2.00;1.83;;;11.60;91.90;;;;;;6217406;23;20459;-70
2022/11/16 00:15:02;;;;;;;2.83;1.70;;;11.60;92.00;;;;;;6216834;23;20438;-70
2022/11/16 00:17:31;;;;;;;1.60;1.50;;;11.60;92.00;;;;;;6215066;23;20438;-70
2022/11/16 00:19:59;;;;;;;2.23;1.60;;;11.60;91.90;;;;;;6243686;23;20382;-70
2022/11/16 00:22:29;;;;;;;1.77;1.67;;;11.60;92.50;;;;;;6217012;23;20387;-70
2022/11/16 00:24:58;;;;;;;2.97;2.03;;;11.60;91.80;;;;;;6216593;23;20425;-69
2022/11/16 00:27:26;;;;;;;1.80;1.63;;;11.60;92.30;;;;;;6216171;23;20522;-72
2022/11/16 00:29:54;;;;;;;1.63;1.53;;;11.60;92.00;;;;;;6216992;23;20714;-72
2022/11/16 00:32:23;;;;;;;1.90;1.63;;;11.60;91.90;;;;;;6216052;23;20456;-72
2022/11/16 00:34:51;;;;;;;2.23;2.03;;;11.60;92.20;;;;;;6216814;23;20468;-72
2022/11/16 00:37:20;;;;;;;1.80;1.70;;;11.60;92.20;;;;;;6215993;23;20431;-72
2022/11/16 00:39:49;;;;;;;2.13;1.63;;;11.60;92.10;;;;;;6216233;23;20431;-72
2022/11/16 00:42:18;;;;;;;1.90;1.70;;;11.60;91.80;;;;;;6216993;23;20434;-72
2022/11/16 00:44:46;;;;;;;2.30;1.70;;;11.60;91.90;;;;;;6217003;23;20917;-72
2022/11/16 00:47:14;;;;;;;1.97;1.63;;;11.60;92.10;;;;;;6215464;23;20431;-72
2022/11/16 00:49:43;;;;;;;1.93;1.77;;;11.60;92.30;;;;;;6216421;23;20429;-72
2022/11/16 00:52:11;;;;;;;2.30;1.70;;;11.60;92.40;;;;;;6216737;23;20477;-72
2022/11/16 00:54:40;;;;;;;1.80;1.70;;;11.60;92.30;;;;;;6216486;23;20407;-72
2022/11/16 00:57:10;;;;;;;2.50;2.30;;;11.60;92.30;;;;;;6215326;23;20446;-71
2022/11/16 00:59:38;;;;;;;2.90;2.10;;;11.60;92.50;;;;;;6216695;23;20465;-72
2022/11/16 01:02:06;;;;;;;2.20;1.80;;;11.60;92.40;;;;;;6215833;23;20478;-72
2022/11/16 01:04:35;;;;;;;2.10;1.90;;;11.60;92.70;;;;;;6216695;23;20511;-72
2022/11/16 01:07:03;;;;;;;2.57;1.93;;;11.60;92.50;;;;;;6243616;23;20421;-72
2022/11/16 01:09:32;;;;;;;1.80;1.50;;;11.60;92.80;;;;;;6215483;23;20554;-72
2022/11/16 01:12:08;;;;;;;2.13;1.77;;;11.60;92.50;;;;;;6216464;23;20421;-72
2022/11/16 01:14:42;;;;;;;2.07;1.73;;;11.60;92.60;;;;;;6216258;23;20843;-72
2022/11/16 01:17:12;;;;;;;1.93;1.73;;;11.60;92.60;;;;;;6190675;23;20935;-71
2022/11/16 01:19:41;;;;;;;3.10;2.33;;;11.60;92.80;;;;;;6216169;23;20367;-72
2022/11/16 01:22:10;;;;;;;1.80;1.70;;;11.60;93.00;;;;;;6243474;23;20389;-72
2022/11/16 01:24:38;;;;;;;2.40;1.80;;;11.60;92.70;;;;;;6216239;23;20403;-72
2022/11/16 01:27:06;;;;;;;2.50;2.13;;;11.60;92.80;;;;;;6214852;23;20431;-72
2022/11/16 01:29:39;;;;;;;2.73;2.53;;;11.60;92.50;;;;;;6216169;23;20906;-72
2022/11/16 01:32:08;;;;;;;2.27;1.93;;;11.60;92.60;;;;;;6215460;23;20387;-71
2022/11/16 01:34:37;;;;;;;1.70;1.50;;;11.60;93.00;;;;;;6242891;23;20393;-72
2022/11/16 01:37:15;;;;;;;2.30;2.10;;;11.60;92.90;;;;;;6215770;23;20442;-72
2022/11/16 01:39:44;;;;;;;2.17;1.97;;;11.60;93.10;;;;;;6215210;23;20390;-71
2022/11/16 01:42:17;;;;;;;2.20;2.10;;;11.60;93.10;;;;;;6216167;23;20722;-71
2022/11/16 01:45:19;;;;;;;2.00;1.80;;;11.60;93.30;;;;;;6216090;23;20410;-72
2022/11/16 01:47:50;;;;;;;2.50;1.67;;;11.60;92.90;;;;;;6190015;23;20441;-71
2022/11/16 01:50:22;;;;;;;2.20;1.97;;;11.60;93.00;;;;;;6215756;23;20778;-72
2022/11/16 01:52:57;;;;;;;5.03;2.13;;;11.60;93.10;;;;;;6215622;22;20939;-72
2022/11/16 01:55:30;;;;;;;2.47;1.93;;;11.60;93.40;;;;;;6215385;23;20414;-71
2022/11/16 01:58:24;;;;;;;2.10;1.90;;;11.60;93.10;;;;;;6198409;23;20443;-72
2022/11/16 02:01:00;;;;;;;1.50;1.40;;;11.60;93.30;;;;;;6215292;23;20371;-72
2022/11/16 02:03:38;;;;;;;2.43;1.90;;;11.60;93.30;;;;;;6215551;23;20835;-72
2022/11/16 02:06:25;;;;;;;2.40;1.80;;;11.60;93.40;;;;;;6216345;23;20411;-72
2022/11/16 02:12:22;;;;;;;2.30;2.10;;;11.60;93.20;;;;;;6216360;23;20398;-72
2022/11/16 02:15:13;;;;;;;2.20;1.90;;;11.60;93.50;;;;;;6216069;23;20446;-72
2022/11/16 02:17:54;;;;;;;1.80;1.70;;;11.60;93.60;;;;;;6215049;23;20927;-72
2022/11/16 02:20:50;;;;;;;2.67;2.40;;;11.60;93.70;;;;;;6216197;23;20424;-72
2022/11/16 02:23:43;;;;;;;2.67;1.73;;;11.60;93.60;;;;;;6215338;22;20430;-72
2022/11/16 02:26:25;;;;;;;2.47;2.00;;;11.60;93.80;;;;;;6152005;23;20507;-72
2022/11/16 02:29:10;;;;;;;2.00;1.60;;;11.70;93.30;;;;;;6215638;23;20399;-72
2022/11/16 02:31:46;;;;;;;2.50;2.10;;;11.60;93.50;;;;;;6215149;23;20910;-72
2022/11/16 02:34:16;;;;;;;3.17;1.50;;;11.60;93.80;;;;;;6216830;23;20370;-72
2022/11/16 02:36:49;;;;;;;2.80;2.03;;;11.60;93.10;;;;;;6242189;22;20746;-72
2022/11/16 02:39:21;;;;;;;1.80;1.70;;;11.60;93.30;;;;;;6215608;23;20498;-72
2022/11/16 02:41:51;;;;;;;1.90;1.67;;;11.60;93.30;;;;;;6215829;23;20394;-72
2022/11/16 02:44:25;;;;;;;1.40;1.30;;;11.60;93.70;;;;;;6216193;23;20453;-72
2022/11/16 02:46:58;;;;;;;1.67;1.57;;;11.60;93.70;;;;;;6214105;23;20434;-72
2022/11/16 02:49:29;;;;;;;1.63;1.40;;;11.60;94.10;;;;;;6215882;23;20364;-72
2022/11/16 02:51:59;;;;;;;2.70;1.47;;;11.60;94.00;;;;;;6216242;23;20413;-72
2022/11/16 02:54:28;;;;;;;3.67;1.60;;;11.60;94.00;;;;;;6215348;23;20481;-72
2022/11/16 02:57:19;;;;;;;1.50;1.40;;;11.60;93.70;;;;;;6203214;23;20886;-69
2022/11/16 02:59:52;;;;;;;2.30;1.33;;;11.60;94.00;;;;;;6214278;23;20404;-69
2022/11/16 03:02:27;;;;;;;1.23;1.13;;;11.60;93.80;;;;;;6187456;23;20383;-70
2022/11/16 03:05:00;;;;;;;1.53;1.30;;;11.60;93.60;;;;;;6214595;23;20447;-70
2022/11/16 03:07:39;;;;;;;1.70;1.60;;;11.60;93.50;;;;;;6186494;23;20931;-69
2022/11/16 03:10:09;;;;;;;1.53;1.40;;;11.60;93.60;;;;;;6187309;23;20752;-69
2022/11/16 03:12:39;;;;;;;1.70;1.30;;;11.60;93.70;;;;;;6187797;23;20873;-69
2022/11/16 03:15:12;;;;;;;2.87;1.50;;;11.60;93.70;;;;;;6187812;23;20451;-70
2022/11/16 03:17:44;;;;;;;1.60;1.03;;;11.70;93.50;;;;;;6186387;23;20947;-70
2022/11/16 03:20:15;;;;;;;1.20;1.10;;;11.60;93.90;;;;;;6187482;23;20372;-70
2022/11/16 03:22:46;;;;;;;3.40;1.57;;;11.60;93.50;;;;;;6186843;23;20439;-70
2022/11/16 03:25:18;;;;;;;1.40;1.30;;;11.60;93.50;;;;;;6187080;23;20411;-69
2022/11/16 03:27:56;;;;;;;4.90;1.63;;;11.60;93.60;;;;;;6186663;23;20438;-69
2022/11/16 03:30:31;;;;;;;3.17;1.33;;;11.60;93.90;;;;;;6186503;23;20375;-69
2022/11/16 03:33:07;;;;;;;1.33;1.10;;;11.60;93.10;;;;;;6186740;23;20837;-70
2022/11/16 03:35:41;;;;;;;1.27;1.10;;;11.60;93.00;;;;;;6187032;23;20907;-68
2022/11/16 03:38:12;;;;;;;1.60;1.10;;;11.60;92.60;;;;;;6186475;23;20443;-70
2022/11/16 03:40:46;;;;;;;1.47;1.37;;;11.60;91.80;;;;;;6186634;23;20403;-70
2022/11/16 03:43:17;;;;;;;3.00;1.20;;;11.60;91.50;;;;;;6186772;23;20779;-68
2022/11/16 03:45:47;;;;;;;1.40;1.30;;;11.60;91.70;;;;;;6186254;23;20404;-69
2022/11/16 03:48:15;;;;;;;1.20;1.07;;;11.60;91.60;;;;;;6186286;23;20499;-69
2022/11/16 03:50:44;;;;;;;2.07;1.60;;;11.70;92.40;;;;;;6187074;23;20542;-70
2022/11/16 03:53:14;;;;;;;1.77;1.23;;;11.70;92.20;;;;;;6186371;23;20443;-69
2022/11/16 03:55:43;;;;;;;1.10;1.00;;;11.70;92.40;;;;;;6186340;23;20416;-70
2022/11/16 03:58:17;;;;;;;1.10;0.90;;;11.60;92.00;;;;;;6186060;23;20829;-70
2022/11/16 04:00:48;;;;;;;1.10;1.00;;;11.60;91.80;;;;;;6185954;23;20408;-70
2022/11/16 04:03:20;;;;;;;1.77;1.00;;;11.70;91.60;;;;;;6185842;23;20802;-70
2022/11/16 04:25:31;;;;;;;1.10;1.00;;;11.70;91.80;;;;;;6186500;23;20435;-68
2022/11/16 04:28:15;;;;;;;1.33;1.03;;;11.60;91.40;;;;;;6186202;23;20434;-70
2022/11/16 04:39:15;;;;;;;1.07;0.97;;;11.70;91.50;;;;;;6186537;23;20423;-70
2022/11/16 04:47:30;;;;;;;1.10;1.00;;;11.70;91.90;;;;;;6185122;23;20427;-68
2022/11/16 04:50:00;;;;;;;2.43;0.97;;;11.60;92.00;;;;;;6186381;23;20372;-71
2022/11/16 04:52:29;;;;;;;0.73;0.70;;;11.70;91.90;;;;;;6185563;23;20824;-69
2022/11/16 04:54:57;;;;;;;1.00;0.90;;;11.70;92.20;;;;;;6186540;23;20474;-70
2022/11/16 04:57:26;;;;;;;0.93;0.80;;;11.60;91.90;;;;;;6185738;23;20489;-70
2022/11/16 04:59:55;;;;;;;1.00;0.90;;;11.70;91.80;;;;;;6186374;23;20419;-71
2022/11/16 05:02:24;;;;;;;2.40;1.13;;;11.70;92.00;;;;;;6186235;23;20402;-70
2022/11/16 05:04:57;;;;;;;3.10;1.00;;;11.70;91.90;;;;;;6186494;23;20495;-69
2022/11/16 05:07:28;;;;;;;3.30;0.70;;;11.60;91.90;;;;;;6210793;23;20478;-70
2022/11/16 05:10:05;;;;;;;1.83;1.10;;;11.60;91.70;;;;;;6185834;23;20463;-69
2022/11/16 05:12:35;;;;;;;1.40;1.30;;;11.60;91.70;;;;;;6210690;23;20458;-70
2022/11/16 05:15:06;;;;;;;3.00;1.20;;;11.70;91.60;;;;;;6186589;23;20760;-70
2022/11/16 05:17:35;;;;;;;1.40;1.10;;;11.70;91.60;;;;;;6211547;23;20424;-69
2022/11/16 05:23:02;;;;;;;1.17;0.90;;;11.60;91.50;;;;;;6185411;23;20447;-69
2022/11/16 05:25:36;;;;;;;3.00;0.90;;;11.70;91.50;;;;;;6186367;23;20443;-69
2022/11/16 05:28:08;;;;;;;1.03;1.00;;;11.60;91.40;;;;;;6185498;23;20427;-69
2022/11/16 05:30:40;;;;;;;0.90;0.83;;;11.60;91.30;;;;;;6185423;23;20381;-69
2022/11/16 05:33:09;;;;;;;1.70;0.90;;;11.70;91.20;;;;;;6184937;23;20560;-70
2022/11/16 05:35:41;;;;;;;3.10;1.17;;;11.60;91.10;;;;;;6186391;23;20813;-70
2022/11/16 05:38:11;;;;;;;1.13;1.03;;;11.60;91.10;;;;;;6185522;23;20776;-70
2022/11/16 05:40:44;;;;;;;1.10;0.83;;;11.60;91.30;;;;;;6185477;23;20416;-70
2022/11/16 05:43:13;;;;;;;1.27;1.00;;;11.60;91.10;;;;;;6185303;23;20439;-70
2022/11/16 05:45:50;;;;;;;1.17;0.93;;;11.70;91.00;;;;;;6184962;23;20415;-69
2022/11/16 05:48:19;;;;;;;1.50;0.83;;;11.60;91.00;;;;;;6185317;23;20812;-69
2022/11/16 05:50:48;;;;;;;1.30;1.20;;;11.60;91.10;;;;;;6186403;23;20716;-69
2022/11/16 05:53:24;;;;;;;1.00;0.90;;;11.60;91.20;;;;;;6185428;23;20446;-69
2022/11/16 05:55:53;;;;;;;1.20;0.83;;;11.60;91.10;;;;;;6185540;23;20408;-70
2022/11/16 05:58:23;;;;;;;1.70;1.30;;;11.60;91.10;;;;;;6184979;23;20428;-69
2022/11/16 06:00:52;;;;;;;1.00;0.87;;;11.60;91.20;;;;;;6184751;23;20485;-69
2022/11/16 06:03:20;;;;;;;1.00;0.80;;;11.60;91.10;;;;;;6184940;23;20459;-69
2022/11/16 06:05:52;;;;;;;0.73;0.73;;;11.60;91.00;;;;;;6185542;23;20418;-71
2022/11/16 06:08:20;;;;;;;1.10;0.93;;;11.60;90.80;;;;;;6184611;23;20432;-70
2022/11/16 06:10:54;;;;;;;0.80;0.70;;;11.60;90.80;;;;;;6185367;23;20933;-70
2022/11/16 06:13:23;;;;;;;1.27;1.00;;;11.60;90.70;;;;;;6159912;23;20427;-70
2022/11/16 06:15:56;;;;;;;0.97;0.93;;;11.60;91.00;;;;;;6184954;23;20416;-70
2022/11/16 06:18:25;;;;;;;2.10;0.90;;;11.60;91.00;;;;;;6185072;23;20427;-70
2022/11/16 06:20:54;;;;;;;1.30;1.13;;;11.60;91.00;;;;;;6185290;23;20976;-69
2022/11/16 06:23:23;;;;;;;1.00;0.87;;;11.60;91.00;;;;;;6184947;23;20427;-70
2022/11/16 06:25:55;;;;;;;1.70;1.10;;;11.60;90.90;;;;;;6186973;23;20416;-70
2022/11/16 06:28:26;;;;;;;2.10;1.00;;;11.60;90.80;;;;;;6187153;23;20431;-70
2022/11/16 06:30:56;;;;;;;1.20;0.77;;;11.60;90.80;;;;;;6184884;23;20402;-69
2022/11/16 06:33:26;;;;;;;1.20;1.10;;;11.60;90.60;;;;;;6184757;23;20466;-69
2022/11/16 06:36:03;;;;;;;1.53;0.90;;;11.60;90.60;;;;;;6187792;23;20525;-69
2022/11/16 06:38:33;;;;;;;4.00;1.47;;;11.60;90.50;;;;;;6186674;23;20431;-69
2022/11/16 06:41:04;;;;;;;1.30;0.87;;;11.60;90.40;;;;;;6188397;23;20798;-69
2022/11/16 06:43:38;;;;;;;1.70;0.97;;;11.60;90.50;;;;;;6187150;23;20430;-69
2022/11/16 06:46:07;;;;;;;1.10;1.00;;;11.60;90.30;;;;;;6186885;23;20419;-70
2022/11/16 06:48:35;;;;;;;1.00;0.90;;;11.60;90.30;;;;;;6186765;23;20436;-70
2022/11/16 06:51:09;;;;;;;1.40;0.90;;;11.60;90.20;;;;;;6187849;23;20529;-71
2022/11/16 06:53:37;;;;;;;1.13;0.97;;;11.60;90.20;;;;;;6186459;23;20424;-70
2022/11/16 06:56:11;;;;;;;1.10;0.70;;;11.60;90.00;;;;;;6188014;23;20416;-69
2022/11/16 06:58:44;;;;;;;1.50;1.23;;;11.60;90.00;;;;;;6186723;23;20423;-69
2022/11/16 07:01:14;;;;;;;0.90;0.70;;;11.60;90.10;;;;;;6187140;23;20500;-70
2022/11/16 07:03:45;;;;;;;1.23;0.80;;;11.60;90.10;;;;;;6186747;23;20456;-70
2022/11/16 07:06:15;;;;;;;1.23;1.13;;;11.60;90.00;;;;;;6187835;23;20411;-70
2022/11/16 07:08:46;;;;;;;1.10;0.90;;;11.60;90.00;;;;;;6185900;23;20510;-70
2022/11/16 07:11:20;;;;;;;1.50;1.10;;;11.60;90.00;;;;;;6187718;23;20392;-70
2022/11/16 07:13:48;;;;;;;1.47;0.97;;;11.60;89.90;;;;;;6186129;23;20497;-69
2022/11/16 07:16:17;;;;;;;1.10;0.87;;;11.60;90.00;;;;;;6186730;23;20459;-69
2022/11/16 07:18:55;;;;;;;2.20;1.10;;;11.60;89.90;;;;;;6186400;23;20454;-69
2022/11/16 07:21:23;;;;;;;0.90;0.67;;;11.60;89.90;;;;;;6187660;23;20443;-68
2022/11/16 07:23:54;;;;;;;1.73;1.30;;;11.60;89.80;;;;;;6186195;23;20823;-68
2022/11/16 07:26:24;;;;;;;4.50;1.00;;;11.60;89.90;;;;;;6187694;23;20477;-69
2022/11/16 07:28:58;;;;;;;2.50;1.13;;;11.60;89.60;;;;;;6186661;23;20422;-69
2022/11/16 07:31:28;;;;;;;1.13;0.97;;;11.60;89.80;;;;;;6186417;23;20403;-68
2022/11/16 07:34:15;;;;;;;0.77;0.67;;;11.60;89.70;;;;;;6213928;23;20388;-69
2022/11/16 07:36:55;;;;;;;1.07;0.90;;;11.60;89.70;;;;;;6188330;23;20797;-69
2022/11/16 07:39:23;;;;;;;1.40;0.77;;;11.60;89.40;;;;;;6187243;23;20754;-69
2022/11/16 07:41:53;;;;;;;1.83;1.00;;;11.60;89.80;;;;;;6213040;23;20440;-68
2022/11/16 07:44:27;;;;;;;3.23;1.20;;;11.60;89.60;;;;;;6187748;23;20368;-68
2022/11/16 07:47:14;;;;;;;2.67;1.13;;;11.60;89.50;;;;;;6185572;23;20679;-69
2022/11/16 07:49:42;;;;;;;1.40;1.13;;;11.60;89.60;;;;;;6187449;23;20380;-68
2022/11/16 07:52:21;;;;;;;2.03;1.30;;;11.60;89.60;;;;;;6187830;23;20406;-69
2022/11/16 07:54:56;;;;;;;3.20;1.30;;;11.60;89.60;;;;;;6187096;23;20417;-68
2022/11/16 07:57:28;;;;;;;2.50;1.10;;;11.60;89.50;;;;;;6186516;23;20458;-70
2022/11/16 07:59:59;;;;;;;3.37;1.60;;;11.60;89.50;;;;;;6187351;23;20377;-68
2022/11/16 08:02:29;;;;;;;1.63;1.37;;;11.60;89.70;;;;;;6213014;23;20438;-69
2022/11/16 08:04:58;;;;;;;1.53;1.17;;;11.60;89.70;;;;;;6186909;23;20414;-68
2022/11/16 08:07:28;;;;;;;3.10;1.20;;;11.60;89.60;;;;;;6189093;23;20454;-69
2022/11/16 08:09:57;;;;;;;3.37;1.50;;;11.60;89.70;;;;;;6190216;23;20399;-70
2022/11/16 08:12:27;;;;;;;3.23;1.20;;;11.60;90.00;;;;;;6186427;23;20889;-68
2022/11/16 08:14:55;;;;;;;1.40;1.30;;;11.50;89.80;;;;;;6186712;23;20408;-69
2022/11/16 08:17:24;;;;;;;2.50;1.10;;;11.60;90.00;;;;;;6185099;23;20432;-69
2022/11/16 08:19:53;;;;;;;1.40;1.30;;;11.60;90.00;;;;;;6211826;23;20786;-68
2022/11/16 08:22:22;;;;;;;2.90;1.27;;;11.60;90.00;;;;;;6187367;23;20443;-67
2022/11/16 08:24:50;;;;;;;3.40;2.00;;;11.60;90.10;;;;;;6187052;23;20404;-69
2022/11/16 08:27:19;;;;;;;3.77;1.47;;;11.60;90.00;;;;;;6186951;23;20395;-68
2022/11/16 08:29:52;;;;;;;1.23;0.97;;;11.60;90.10;;;;;;6186419;23;20383;-68
2022/11/16 08:32:21;;;;;;;2.03;1.10;;;11.60;90.10;;;;;;6186051;23;20376;-68
2022/11/16 08:34:50;;;;;;;1.90;1.20;;;11.60;90.00;;;;;;6186549;23;20908;-69
2022/11/16 08:37:19;;;;;;;2.30;1.03;;;11.60;90.10;;;;;;6186205;23;20490;-68
2022/11/16 08:39:48;;;;;;;0.87;0.83;;;11.60;90.10;;;;;;6185988;23;20754;-67
2022/11/16 08:42:16;;;;;;;1.27;0.90;;;11.60;90.10;;;;;;6187486;23;20425;-68
2022/11/16 08:44:48;;;;;;;1.63;1.07;;;11.60;90.00;;;;;;6187359;23;20503;-68
2022/11/16 08:47:21;;;;;;;1.37;0.90;;;11.60;89.80;;;;;;6186461;23;20380;-69
2022/11/16 08:49:53;;;;;;;1.30;1.10;;;11.60;89.70;;;;;;6186845;23;20368;-69
2022/11/16 08:52:22;;;;;;;1.43;1.07;;;11.60;89.60;;;;;;6187494;23;20448;-68
2022/11/16 08:54:53;;;;;;;1.27;0.87;;;11.60;89.10;;;;;;6186263;23;20412;-68
2022/11/16 08:57:22;;;;;;;1.03;0.83;;;11.70;88.80;;;;;;6185403;23;20752;-50
2022/11/16 08:59:57;;;;;;;1.53;0.87;;;11.70;88.90;;;;;;6186440;23;20372;-50
2022/11/16 09:02:27;;;;;;;0.90;0.80;;;11.70;88.60;;;;;;6206001;23;20432;-49
2022/11/16 09:04:56;;;;;;;1.30;1.10;;;11.70;88.40;;;;;;6206952;23;20903;-49
2022/11/16 09:07:24;;;;;;;1.20;0.80;;;11.70;88.50;;;;;;6156075;23;20777;-49
2022/11/16 09:09:53;;;;;;;1.17;0.70;;;11.70;88.40;;;;;;6156238;23;20364;-49
2022/11/16 09:12:21;;;;;;;1.47;1.00;;;11.70;88.40;;;;;;6157290;23;20893;-50
2022/11/16 09:14:50;;;;;;;1.13;0.60;;;11.70;88.50;;;;;;6157306;23;20458;-50
2022/11/16 09:17:18;;;;;;;0.80;0.80;;;11.70;88.30;;;;;;6205505;23;20449;-49
2022/11/16 09:19:52;;;;;;;1.37;0.80;;;11.80;88.40;;;;;;6207689;23;20404;-49
2022/11/16 09:22:20;;;;;;;1.20;0.77;;;11.80;88.30;;;;;;6157374;23;20424;-49
2022/11/16 09:24:49;;;;;;;2.80;1.10;;;11.80;88.20;;;;;;6157019;23;20419;-47
2022/11/16 09:27:17;;;;;;;2.63;1.17;;;11.80;88.70;;;;;;6182334;23;20983;-50
2022/11/16 09:29:45;;;;;;;3.63;1.27;;;11.80;88.90;;;;;;6157191;23;20471;-50
2022/11/16 09:32:14;;;;;;;2.30;1.10;;;11.80;88.60;;;;;;6156188;23;20420;-50
2022/11/16 09:34:42;;;;;;;2.43;1.13;;;11.80;88.50;;;;;;6157126;23;20381;-49
2022/11/16 09:37:12;;;;;;;1.47;1.37;;;11.80;88.40;;;;;;6157092;23;20877;-49
2022/11/16 09:39:41;;;;;;;1.40;0.87;;;11.80;88.40;;;;;;6156288;23;20877;-49
2022/11/16 09:42:37;;;;;;;3.83;1.33;;;11.80;88.20;;;;;;6156064;23;20436;-49
2022/11/16 09:45:13;;;;;;;1.17;0.90;;;11.80;88.20;;;;;;6206554;23;20416;-49
2022/11/16 09:47:47;;;;;;;0.93;0.73;;;11.80;88.00;;;;;;6157121;23;20395;-49
2022/11/16 09:50:42;;;;;;;1.30;1.20;;;11.80;88.00;;;;;;6156873;23;21138;-49
2022/11/16 09:53:27;;;;;;;2.67;1.27;;;11.80;88.00;;;;;;6205050;23;20471;-50
2022/11/16 09:56:01;;;;;;;1.50;0.77;;;11.80;87.90;;;;;;6157251;23;20400;-50
2022/11/16 09:58:34;;;;;;;1.33;1.00;;;11.80;87.90;;;;;;6155326;23;20459;-49
2022/11/16 10:01:07;;;;;;;2.20;1.00;;;11.80;87.90;;;;;;6182619;23;20373;-49
2022/11/16 10:03:43;;;;;;;1.43;0.80;;;11.80;87.90;;;;;;6205310;23;20436;-49
2022/11/16 10:06:20;;;;;;;1.33;0.90;;;11.80;87.90;;;;;;6157010;23;20775;-50
2022/11/16 10:08:51;;;;;;;1.90;1.07;;;11.80;87.90;;;;;;6155479;23;20435;-50
2022/11/16 10:11:36;;;;;;;1.57;0.90;;;11.80;87.80;;;;;;6205866;23;20419;-50
2022/11/16 10:14:28;;;;;;;3.33;1.00;;;11.80;87.90;;;;;;6130031;23;20421;-50
2022/11/16 10:17:03;;;;;;;1.37;1.27;;;11.80;89.50;;;;;;6155907;23;20720;-50
2022/11/16 10:19:42;;;;;;;4.93;2.00;;;11.80;87.80;;;;;;6183001;23;20376;-49
2022/11/16 10:22:26;;;;;;;2.70;1.60;;;11.90;88.40;;;;;;6205772;23;20460;-50
2022/11/16 10:24:59;;;;;;;3.90;1.30;;;11.80;88.10;;;;;;6206715;23;20369;-50
2022/11/16 10:28:05;;;;;;;1.80;1.27;;;11.80;87.90;;;;;;6157236;23;20373;-50
2022/11/16 10:30:37;;;;;;;4.50;1.70;;;11.80;88.00;;;;;;6206063;23;20404;-50
2022/11/16 10:33:12;;;;;;;2.17;1.40;;;11.80;87.90;;;;;;6182274;23;20440;-50
2022/11/16 10:35:45;;;;;;;2.90;1.67;;;11.80;88.00;;;;;;6206685;23;20904;-49
2022/11/16 10:38:16;;;;;;;3.07;1.40;;;11.80;87.80;;;;;;6155816;23;20552;-50
2022/11/16 10:40:49;;;;;;;1.70;1.57;;;11.80;88.00;;;;;;6156693;23;20369;-49
2022/11/16 10:43:22;;;;;;;1.73;1.60;;;11.80;88.00;;;;;;6155628;23;20436;-50
2022/11/16 10:45:56;;;;;;;3.17;1.50;;;11.80;87.90;;;;;;6206501;23;20381;-49
2022/11/16 10:48:35;;;;;;;1.77;1.10;;;11.80;87.80;;;;;;6155884;23;20431;-49
2022/11/16 10:51:05;;;;;;;1.30;1.20;;;11.80;87.80;;;;;;6157375;23;20448;-49
2022/11/16 10:53:36;;;;;;;2.43;1.40;;;11.80;87.80;;;;;;6204879;23;20922;-50
2022/11/16 10:56:20;;;;;;;1.37;1.20;;;11.80;87.90;;;;;;6157246;23;20452;-49
2022/11/16 10:58:55;;;;;;;2.13;1.57;;;11.80;87.80;;;;;;6155547;23;21113;-49
2022/11/16 11:01:35;;;;;;;2.20;1.10;;;11.80;87.80;;;;;;6156374;23;20384;-49
2022/11/16 11:04:17;;;;;;;1.43;1.33;;;11.80;87.80;;;;;;6155963;23;20476;-49
2022/11/16 11:06:47;;;;;;;2.13;1.37;;;11.80;89.00;;;;;;6206528;23;20913;-49
2022/11/16 11:09:23;;;;;;;2.97;1.00;;;11.80;87.80;;;;;;6204864;23;20375;-50
2022/11/16 11:14:59;;;;;;;2.20;1.30;;;11.90;88.60;;;;;;6155962;23;20424;-50
2022/11/16 11:17:29;;;;;;;2.43;1.20;;;11.90;88.80;;;;;;6154393;23;20809;-50
2022/11/16 11:20:00;;;;;;;1.50;1.20;;;11.90;88.70;;;;;;6156772;23;20392;-50
2022/11/16 11:22:30;;;;;;;1.50;1.23;;;12.00;88.90;;;;;;6157023;23;20428;-50
2022/11/16 11:25:01;;;;;;;2.63;1.30;;;12.00;88.80;;;;;;6157755;23;20500;-49
2022/11/16 11:27:34;;;;;;;1.67;1.57;;;12.00;88.70;;;;;;6156888;23;20524;-50
2022/11/16 11:30:03;;;;;;;5.10;1.37;;;12.00;88.50;;;;;;6157919;23;20435;-49
2022/11/16 11:32:38;;;;;;;1.40;1.20;;;12.00;88.40;;;;;;6157101;23;20432;-50
2022/11/16 11:35:21;;;;;;;1.20;1.10;;;12.10;88.40;;;;;;6184260;23;20376;-50
2022/11/16 11:37:52;;;;;;;1.80;1.17;;;12.10;88.30;;;;;;6157062;23;20432;-50
2022/11/16 11:40:23;;;;;;;1.93;1.03;;;12.10;88.30;;;;;;6157223;23;20380;-49
2022/11/16 11:42:55;;;;;;;2.03;1.23;;;12.10;88.10;;;;;;6157569;23;20531;-49
2022/11/16 11:45:31;;;;;;;1.67;1.23;;;12.10;88.10;;;;;;6157175;23;20420;-49
2022/11/16 11:48:02;;;;;;;1.67;1.13;;;12.20;88.00;;;;;;6206269;23;20781;-49
2022/11/16 11:50:42;;;;;;;2.00;1.43;;;12.20;87.90;;;;;;6157133;23;20583;-49
2022/11/16 11:53:23;;;;;;;1.23;1.13;;;12.20;87.80;;;;;;6156961;23;20433;-49
2022/11/16 11:55:57;;;;;;;1.63;1.40;;;12.20;87.70;;;;;;6184410;23;20371;-49
2022/11/16 11:58:31;;;;;;;1.20;0.83;;;12.20;87.60;;;;;;6156731;23;21040;-49
2022/11/16 12:01:24;;;;;;;1.47;1.00;;;12.20;87.60;;;;;;6156960;23;20383;-50
2022/11/16 12:04:29;;;;;;;2.70;1.40;;;12.20;87.50;;;;;;6205980;23;20498;-50
2022/11/16 12:07:08;;;;;;;1.67;1.27;;;12.20;87.50;;;;;;6183948;23;20419;-49
2022/11/16 12:09:46;;;;;;;1.30;1.00;;;12.20;87.40;;;;;;6207132;23;20679;-50
2022/11/16 12:12:35;;;;;;;1.50;0.90;;;12.20;87.30;;;;;;6182767;23;20772;-49
2022/11/16 12:15:28;;;;;;;2.57;1.83;;;12.20;87.30;;;;;;6182651;23;20924;-49
2022/11/16 12:18:06;;;;;;;2.20;0.90;;;12.20;87.30;;;;;;6156795;23;20495;-49
2022/11/16 12:20:44;;;;;;;1.40;1.20;;;12.20;87.30;;;;;;6183416;23;20385;-49
2022/11/16 12:23:35;;;;;;;1.40;0.90;;;12.20;87.20;;;;;;6206168;23;20984;-50
2022/11/16 12:26:11;;;;;;;2.23;1.10;;;12.20;87.20;;;;;;6183429;23;20370;-50
2022/11/16 12:28:58;;;;;;;1.00;0.90;;;12.20;87.20;;;;;;6156910;23;20428;-49
2022/11/16 12:31:51;;;;;;;0.93;0.90;;;12.20;87.20;;;;;;6183036;23;20869;-48
2022/11/16 12:34:30;;;;;;;0.93;0.83;;;12.20;87.20;;;;;;6178293;23;20693;-69
2022/11/16 12:37:07;;;;;;;3.50;1.37;;;12.20;87.20;;;;;;6158146;23;20948;-68
2022/11/16 12:39:42;;;;;;;2.07;1.30;;;12.20;87.20;;;;;;6158002;23;20459;-72
2022/11/16 12:42:28;;;;;;;0.90;0.90;;;12.20;87.10;;;;;;6156129;23;20425;-68
2022/11/16 12:45:21;;;;;;;1.10;0.90;;;12.20;87.10;;;;;;6158148;23;20409;-69
2022/11/16 12:48:21;;;;;;;1.83;1.27;;;12.20;87.10;;;;;;6156738;23;20432;-69
2022/11/16 12:50:56;;;;;;;1.90;1.17;;;12.20;87.00;;;;;;6128339;23;20455;-68
2022/11/16 12:53:49;;;;;;;2.00;1.00;;;12.20;86.90;;;;;;6157640;23;20429;-72
2022/11/16 12:56:28;;;;;;;2.87;0.70;;;12.20;87.00;;;;;;6158776;23;20622;-72
2022/11/16 12:59:35;;;;;;;1.33;1.20;;;12.20;86.90;;;;;;6157086;23;20440;-72
2022/11/16 13:02:32;;;;;;;3.00;1.57;;;12.20;86.90;;;;;;6172112;23;20866;-72
2022/11/16 13:05:11;;;;;;;1.40;1.00;;;12.20;86.90;;;;;;6157788;23;20408;-71
2022/11/16 13:07:44;;;;;;;1.10;1.00;;;12.20;87.00;;;;;;6156506;23;20436;-71
2022/11/16 13:10:19;;;;;;;1.53;1.43;;;12.20;87.00;;;;;;6156801;23;20842;-71
2022/11/16 13:12:53;;;;;;;0.97;0.83;;;12.20;87.10;;;;;;6156579;23;20479;-72
2022/11/16 13:15:45;;;;;;;1.60;0.90;;;12.20;87.10;;;;;;6183572;23;20416;-71
2022/11/16 13:18:17;;;;;;;1.20;1.10;;;12.20;87.10;;;;;;6183099;23;20432;-71
2022/11/16 13:20:52;;;;;;;1.40;1.10;;;12.20;87.00;;;;;;6157660;23;20648;-68
2022/11/16 13:23:29;;;;;;;1.53;1.00;;;12.20;87.10;;;;;;6182483;23;20467;-68
2022/11/16 13:26:09;;;;;;;1.80;1.00;;;12.20;87.20;;;;;;6156425;23;20419;-68
2022/11/16 13:28:43;;;;;;;1.30;0.90;;;12.20;87.20;;;;;;6155530;23;20415;-67
2022/11/16 13:31:18;;;;;;;2.20;1.13;;;12.20;87.60;;;;;;6156604;23;20190;-68
2022/11/16 13:33:49;;;;;;;1.23;1.10;;;12.30;87.50;;;;;;6155984;23;20427;-68
2022/11/16 13:36:45;;;;;;;3.43;1.30;;;12.20;87.30;;;;;;6183240;23;20412;-68
2022/11/16 13:39:16;;;;;;;2.37;1.10;;;12.20;87.20;;;;;;6156343;23;20479;-68
2022/11/16 13:41:51;;;;;;;1.80;1.10;;;12.20;87.30;;;;;;6156582;23;20396;-68
2022/11/16 13:44:28;;;;;;;1.90;0.70;;;12.20;87.20;;;;;;6156750;23;20445;-68
2022/11/16 13:47:03;;;;;;;2.93;0.90;;;12.20;87.30;;;;;;6156167;23;20702;-68
2022/11/16 13:49:35;;;;;;;1.03;0.93;;;12.20;87.30;;;;;;6183396;23;20427;-68
2022/11/16 13:52:06;;;;;;;1.83;0.93;;;12.20;87.20;;;;;;6156477;23;20381;-66
2022/11/16 13:54:52;;;;;;;1.83;0.83;;;12.20;87.30;;;;;;6157033;23;20929;-71
2022/11/16 13:57:25;;;;;;;2.40;1.17;;;12.20;87.20;;;;;;6155685;23;20432;-71
2022/11/16 14:00:09;;;;;;;1.43;1.03;;;12.20;87.30;;;;;;6183115;23;20707;-72
2022/11/16 14:03:13;;;;;;;1.47;0.97;;;12.20;88.40;;;;;;6183098;23;20381;-71
2022/11/16 14:05:51;;;;;;;1.33;0.70;;;12.20;87.20;;;;;;6131362;23;20421;-72